createdAt,value
2018-07-21T17:54:01.333Z,8.33
2018-07-21T17:56:38.401Z,8.40
2018-07-21T17:59:15.306Z,8.20
2018-07-21T18:01:54.159Z,8.20
2018-07-21T18:04:31.275Z,7.47
2018-07-21T18:07:09.092Z,8.30
2018-07-21T18:09:45.958Z,8.07
2018-07-21T18:12:23.352Z,9.30
2018-07-21T18:15:00.713Z,9.87
2018-07-21T18:17:38.072Z,8.43
2018-07-21T18:20:14.924Z,9.17
2018-07-21T18:22:52.983Z,9.07
2018-07-21T18:25:31.457Z,8.33
2018-07-21T18:28:09.141Z,7.93
2018-07-21T18:30:46.609Z,10.00
2018-07-21T18:33:24.054Z,12.50
2018-07-21T18:36:00.992Z,8.87
2018-07-21T18:38:40.251Z,9.00
2018-07-21T18:41:18.484Z,8.60
2018-07-21T18:43:55.818Z,8.83
2018-07-21T18:46:33.920Z,9.03
2018-07-21T18:49:12.410Z,13.77
2018-07-21T18:51:50.424Z,9.03
2018-07-21T18:54:30.111Z,10.00
2018-07-21T18:57:11.328Z,11.87
2018-07-21T18:59:50.161Z,9.33
2018-07-21T19:02:31.537Z,9.67
2018-07-21T19:05:13.554Z,9.80
2018-07-21T19:10:36.906Z,9.80
2018-07-21T19:13:15.285Z,9.53
2018-07-21T19:15:59.759Z,9.77
2018-07-21T19:18:38.728Z,8.83
2018-07-21T19:21:18.982Z,9.50
2018-07-21T19:23:57.205Z,9.23
2018-07-21T19:29:40.363Z,11.53
2018-07-21T19:32:22.625Z,10.00
2018-07-21T19:35:00.612Z,10.70
2018-07-21T19:37:42.909Z,12.10
2018-07-21T19:40:24.204Z,11.80
2018-07-21T19:43:02.442Z,11.77
2018-07-21T19:45:40.483Z,13.30
2018-07-21T19:48:17.891Z,12.93
2018-07-21T19:50:54.749Z,12.47
2018-07-21T19:53:32.232Z,12.10
2018-07-21T19:56:10.414Z,14.30
2018-07-21T19:58:48.384Z,12.20
2018-07-21T20:01:25.506Z,12.83
2018-07-21T20:04:04.390Z,13.77
2018-07-21T20:06:41.250Z,12.57
2018-07-21T20:09:18.204Z,12.60
2018-07-21T20:11:56.088Z,14.00
2018-07-21T20:14:35.757Z,14.97
2018-07-21T20:17:16.177Z,14.03
2018-07-21T20:19:53.656Z,12.47
2018-07-21T20:22:30.349Z,12.03
2018-07-21T20:25:14.141Z,12.37
2018-07-21T20:27:55.958Z,13.33
2018-07-21T20:30:33.187Z,11.37
2018-07-21T20:33:10.924Z,13.00
2018-07-21T20:35:48.691Z,11.40
2018-07-21T20:38:25.606Z,11.90
2018-07-21T20:41:03.459Z,12.60
2018-07-21T20:43:41.282Z,12.07
2018-07-21T20:46:19.372Z,12.47
2018-07-21T20:48:56.642Z,13.50
2018-07-21T20:51:33.828Z,12.27
2018-07-21T20:54:10.734Z,14.10
2018-07-21T20:56:52.580Z,13.50
2018-07-21T20:59:32.664Z,13.43
2018-07-21T21:02:10.321Z,13.63
2018-07-21T21:04:47.130Z,12.17
2018-07-21T21:07:24.395Z,12.47
2018-07-21T21:12:46.407Z,11.50
2018-07-21T21:15:23.226Z,12.10
2018-07-21T21:18:00.304Z,12.53
2018-07-21T21:20:41.092Z,13.93
2018-07-21T21:23:19.782Z,12.63
2018-07-21T21:25:57.919Z,11.97
2018-07-21T21:28:35.227Z,13.97
2018-07-21T21:31:12.682Z,16.10
2018-07-21T21:33:49.618Z,13.17
2018-07-21T21:36:27.428Z,13.30
2018-07-21T21:39:07.094Z,13.43
2018-07-21T21:41:44.173Z,14.57
2018-07-21T21:44:22.128Z,14.23
2018-07-21T21:47:01.219Z,13.20
2018-07-21T21:49:39.401Z,18.07
2018-07-21T21:52:16.270Z,13.57
2018-07-21T21:54:53.279Z,13.40
2018-07-21T21:57:29.739Z,13.80
2018-07-21T22:00:10.975Z,16.67
2018-07-21T22:02:47.976Z,14.43
2018-07-21T22:05:25.048Z,13.70
2018-07-21T22:08:02.848Z,14.30
2018-07-21T22:10:41.096Z,13.80
2018-07-21T22:13:18.621Z,14.77
2018-07-21T22:15:57.311Z,14.83
2018-07-21T22:18:34.777Z,14.33
2018-07-21T22:21:11.750Z,14.27
2018-07-21T22:23:48.762Z,15.43
2018-07-21T22:26:25.776Z,15.03
2018-07-21T22:29:02.632Z,14.20
2018-07-21T22:31:39.807Z,14.23
2018-07-21T22:34:16.442Z,14.50
2018-07-21T22:36:54.222Z,15.63
2018-07-21T22:39:35.258Z,14.50
2018-07-21T22:42:12.517Z,14.10
2018-07-21T22:44:49.156Z,14.50
2018-07-21T22:47:26.222Z,15.27
2018-07-21T22:50:03.259Z,14.93
2018-07-21T22:52:40.508Z,14.07
2018-07-21T22:55:17.029Z,14.67
2018-07-21T22:57:54.037Z,16.10
2018-07-21T23:00:31.419Z,13.93
2018-07-21T23:03:09.616Z,13.90
2018-07-21T23:05:46.418Z,14.70
2018-07-21T23:08:23.887Z,15.73
2018-07-21T23:11:00.692Z,14.13
2018-07-21T23:13:38.470Z,13.67
2018-07-21T23:16:15.572Z,13.90
2018-07-21T23:18:52.448Z,12.70
2018-07-21T23:21:29.445Z,14.07
2018-07-21T23:24:07.050Z,14.30
2018-07-21T23:26:43.723Z,13.33
2018-07-21T23:29:20.694Z,14.33
2018-07-21T23:31:57.274Z,16.43
2018-07-21T23:34:34.302Z,14.90
2018-07-21T23:37:11.052Z,13.70
2018-07-21T23:39:48.511Z,14.87
2018-07-21T23:42:25.153Z,15.93
2018-07-21T23:45:02.202Z,13.60
2018-07-21T23:47:39.205Z,15.27
2018-07-21T23:50:16.822Z,14.93
2018-07-21T23:52:54.376Z,13.93
2018-07-21T23:55:31.495Z,13.30
2018-07-21T23:58:08.299Z,13.80
